sensor_id;sensor_type;location;lat;lon;timestamp;noise_LAeq;noise_LA_min;noise_LA_max;noise_LA01;noise_LA95
37162;Laerm;68342;52.598;13.450;2024-02-26T00:01:07;38.49;32.04;52.46;;
37162;Laerm;68342;52.598;13.450;2024-02-26T00:03:32;39.41;32.73;53.89;;
37162;Laerm;68342;52.598;13.450;2024-02-26T00:06:00;38.60;32.55;56.36;;
37162;Laerm;68342;52.598;13.450;2024-02-26T00:08:25;38.98;32.87;57.46;;
37162;Laerm;68342;52.598;13.450;2024-02-26T00:10:51;38.54;33.38;52.72;;
37162;Laerm;68342;52.598;13.450;2024-02-26T00:13:16;41.56;33.25;54.99;;
37162;Laerm;68342;52.598;13.450;2024-02-26T00:15:41;41.70;34.35;54.47;;
37162;Laerm;68342;52.598;13.450;2024-02-26T00:18:09;38.35;33.78;53.75;;
37162;Laerm;68342;52.598;13.450;2024-02-26T00:20:37;40.42;34.12;56.40;;
37162;Laerm;68342;52.598;13.450;2024-02-26T00:23:04;41.40;33.18;55.18;;
37162;Laerm;68342;52.598;13.450;2024-02-26T00:25:29;37.48;31.77;53.86;;
37162;Laerm;68342;52.598;13.450;2024-02-26T00:27:54;37.61;31.81;55.19;;
37162;Laerm;68342;52.598;13.450;2024-02-26T00:30:19;37.06;31.78;51.66;;
37162;Laerm;68342;52.598;13.450;2024-02-26T00:32:45;37.69;32.26;54.24;;
37162;Laerm;68342;52.598;13.450;2024-02-26T00:35:10;37.79;32.38;53.11;;
37162;Laerm;68342;52.598;13.450;2024-02-26T00:37:35;38.12;31.90;53.74;;
37162;Laerm;68342;52.598;13.450;2024-02-26T00:40:01;37.88;32.28;53.75;;
37162;Laerm;68342;52.598;13.450;2024-02-26T00:42:26;42.93;33.22;56.22;;
37162;Laerm;68342;52.598;13.450;2024-02-26T00:44:51;38.09;32.05;55.53;;
37162;Laerm;68342;52.598;13.450;2024-02-26T00:47:17;38.00;32.36;57.00;;
37162;Laerm;68342;52.598;13.450;2024-02-26T00:49:42;39.61;32.22;55.72;;
37162;Laerm;68342;52.598;13.450;2024-02-26T00:52:07;39.09;32.09;56.69;;
37162;Laerm;68342;52.598;13.450;2024-02-26T00:54:32;37.30;31.15;57.24;;
37162;Laerm;68342;52.598;13.450;2024-02-26T00:56:58;37.82;33.04;56.07;;
37162;Laerm;68342;52.598;13.450;2024-02-26T00:59:23;37.99;32.55;55.88;;
37162;Laerm;68342;52.598;13.450;2024-02-26T01:01:48;42.38;32.22;72.19;;
37162;Laerm;68342;52.598;13.450;2024-02-26T01:04:13;40.35;33.32;55.94;;
37162;Laerm;68342;52.598;13.450;2024-02-26T01:06:39;37.97;31.51;53.73;;
37162;Laerm;68342;52.598;13.450;2024-02-26T01:09:04;37.75;31.18;56.60;;
37162;Laerm;68342;52.598;13.450;2024-02-26T01:11:29;42.34;32.55;51.60;;
37162;Laerm;68342;52.598;13.450;2024-02-26T01:13:54;40.37;34.54;56.58;;
37162;Laerm;68342;52.598;13.450;2024-02-26T01:16:22;39.43;32.57;56.06;;
37162;Laerm;68342;52.598;13.450;2024-02-26T01:18:47;36.83;31.67;53.85;;
37162;Laerm;68342;52.598;13.450;2024-02-26T01:21:12;37.65;31.34;54.27;;
37162;Laerm;68342;52.598;13.450;2024-02-26T01:23:38;38.44;32.88;56.92;;
37162;Laerm;68342;52.598;13.450;2024-02-26T01:26:03;37.50;31.58;55.98;;
37162;Laerm;68342;52.598;13.450;2024-02-26T01:28:29;36.51;31.05;52.23;;
37162;Laerm;68342;52.598;13.450;2024-02-26T01:30:55;40.23;31.93;53.81;;
37162;Laerm;68342;52.598;13.450;2024-02-26T01:33:20;37.91;32.13;55.76;;
37162;Laerm;68342;52.598;13.450;2024-02-26T01:35:45;38.58;31.77;55.79;;
37162;Laerm;68342;52.598;13.450;2024-02-26T01:38:11;38.15;32.74;53.52;;
37162;Laerm;68342;52.598;13.450;2024-02-26T01:40:36;38.82;31.23;53.18;;
37162;Laerm;68342;52.598;13.450;2024-02-26T01:43:02;37.52;31.55;55.07;;
37162;Laerm;68342;52.598;13.450;2024-02-26T01:45:27;37.13;31.33;55.11;;
37162;Laerm;68342;52.598;13.450;2024-02-26T01:47:53;38.57;32.34;50.77;;
37162;Laerm;68342;52.598;13.450;2024-02-26T01:50:19;39.62;33.44;62.28;;
37162;Laerm;68342;52.598;13.450;2024-02-26T01:52:45;39.79;30.96;53.48;;
37162;Laerm;68342;52.598;13.450;2024-02-26T01:55:12;36.49;30.89;51.06;;
37162;Laerm;68342;52.598;13.450;2024-02-26T01:57:39;39.10;32.36;55.46;;
37162;Laerm;68342;52.598;13.450;2024-02-26T02:00:04;39.91;33.52;57.08;;
37162;Laerm;68342;52.598;13.450;2024-02-26T02:02:31;42.22;32.92;54.24;;
37162;Laerm;68342;52.598;13.450;2024-02-26T02:04:56;41.96;33.88;55.37;;
37162;Laerm;68342;52.598;13.450;2024-02-26T02:07:21;37.56;31.63;57.25;;
37162;Laerm;68342;52.598;13.450;2024-02-26T02:09:48;39.05;33.20;56.24;;
37162;Laerm;68342;52.598;13.450;2024-02-26T02:12:13;41.17;34.23;51.94;;
37162;Laerm;68342;52.598;13.450;2024-02-26T02:14:39;38.30;32.61;56.67;;
37162;Laerm;68342;52.598;13.450;2024-02-26T02:17:04;38.16;32.72;56.79;;
37162;Laerm;68342;52.598;13.450;2024-02-26T02:19:29;38.02;32.69;53.36;;
37162;Laerm;68342;52.598;13.450;2024-02-26T02:21:54;42.20;33.73;55.73;;
37162;Laerm;68342;52.598;13.450;2024-02-26T02:24:20;41.00;33.36;54.38;;
37162;Laerm;68342;52.598;13.450;2024-02-26T02:26:45;38.84;33.30;56.36;;
37162;Laerm;68342;52.598;13.450;2024-02-26T02:29:10;38.80;33.49;61.69;;
37162;Laerm;68342;52.598;13.450;2024-02-26T02:31:36;39.14;32.97;52.43;;
37162;Laerm;68342;52.598;13.450;2024-02-26T02:34:02;40.37;34.53;56.14;;
37162;Laerm;68342;52.598;13.450;2024-02-26T02:36:27;39.81;33.04;56.11;;
37162;Laerm;68342;52.598;13.450;2024-02-26T02:38:52;38.45;32.26;53.19;;
37162;Laerm;68342;52.598;13.450;2024-02-26T02:41:18;37.58;32.57;58.48;;
37162;Laerm;68342;52.598;13.450;2024-02-26T02:43:43;37.20;32.07;57.12;;
37162;Laerm;68342;52.598;13.450;2024-02-26T02:46:09;38.03;31.46;62.79;;
37162;Laerm;68342;52.598;13.450;2024-02-26T02:48:36;40.12;33.09;54.47;;
37162;Laerm;68342;52.598;13.450;2024-02-26T02:51:01;44.26;34.15;55.66;;
37162;Laerm;68342;52.598;13.450;2024-02-26T02:53:26;40.75;33.10;70.43;;
37162;Laerm;68342;52.598;13.450;2024-02-26T02:55:51;44.94;34.48;60.57;;
37162;Laerm;68342;52.598;13.450;2024-02-26T02:58:17;38.75;32.58;59.28;;
37162;Laerm;68342;52.598;13.450;2024-02-26T03:00:42;40.69;32.97;60.52;;
37162;Laerm;68342;52.598;13.450;2024-02-26T03:03:07;39.73;33.21;53.83;;
37162;Laerm;68342;52.598;13.450;2024-02-26T03:05:32;38.42;33.26;53.36;;
37162;Laerm;68342;52.598;13.450;2024-02-26T03:07:58;38.04;33.38;54.16;;
37162;Laerm;68342;52.598;13.450;2024-02-26T03:10:23;40.47;34.66;59.75;;
37162;Laerm;68342;52.598;13.450;2024-02-26T03:12:49;39.87;34.32;53.80;;
37162;Laerm;68342;52.598;13.450;2024-02-26T03:15:14;41.77;35.40;53.43;;
37162;Laerm;68342;52.598;13.450;2024-02-26T03:17:39;43.73;37.04;54.82;;
37162;Laerm;68342;52.598;13.450;2024-02-26T03:20:05;42.77;36.94;56.73;;
37162;Laerm;68342;52.598;13.450;2024-02-26T03:22:33;39.31;35.13;53.56;;
37162;Laerm;68342;52.598;13.450;2024-02-26T03:24:58;42.96;34.40;55.60;;
37162;Laerm;68342;52.598;13.450;2024-02-26T03:27:24;44.63;35.34;55.55;;
37162;Laerm;68342;52.598;13.450;2024-02-26T03:29:49;40.53;35.80;58.81;;
37162;Laerm;68342;52.598;13.450;2024-02-26T03:32:14;42.11;36.02;58.46;;
37162;Laerm;68342;52.598;13.450;2024-02-26T03:34:39;42.33;37.40;53.98;;
37162;Laerm;68342;52.598;13.450;2024-02-26T03:37:05;41.50;37.21;53.20;;
37162;Laerm;68342;52.598;13.450;2024-02-26T03:39:31;43.62;39.05;55.94;;
37162;Laerm;68342;52.598;13.450;2024-02-26T03:41:56;42.07;38.05;54.93;;
37162;Laerm;68342;52.598;13.450;2024-02-26T03:44:22;41.87;37.77;57.82;;
37162;Laerm;68342;52.598;13.450;2024-02-26T03:46:47;44.05;39.00;52.32;;
37162;Laerm;68342;52.598;13.450;2024-02-26T03:49:12;41.84;37.52;53.40;;
37162;Laerm;68342;52.598;13.450;2024-02-26T03:51:38;41.85;37.31;57.50;;
37162;Laerm;68342;52.598;13.450;2024-02-26T03:54:03;42.08;37.83;58.73;;
37162;Laerm;68342;52.598;13.450;2024-02-26T03:56:29;42.17;36.86;61.42;;
37162;Laerm;68342;52.598;13.450;2024-02-26T03:58:54;42.61;39.10;58.26;;
37162;Laerm;68342;52.598;13.450;2024-02-26T04:01:19;43.52;38.84;58.40;;
37162;Laerm;68342;52.598;13.450;2024-02-26T04:03:44;43.23;39.14;55.69;;
37162;Laerm;68342;52.598;13.450;2024-02-26T04:06:10;43.05;38.72;55.35;;
37162;Laerm;68342;52.598;13.450;2024-02-26T04:08:36;43.40;39.11;65.61;;
37162;Laerm;68342;52.598;13.450;2024-02-26T04:11:01;43.53;39.68;58.91;;
37162;Laerm;68342;52.598;13.450;2024-02-26T04:13:27;43.36;39.29;51.96;;
37162;Laerm;68342;52.598;13.450;2024-02-26T04:15:52;44.45;40.22;54.77;;
37162;Laerm;68342;52.598;13.450;2024-02-26T04:18:18;45.21;41.56;56.50;;
37162;Laerm;68342;52.598;13.450;2024-02-26T04:20:43;45.43;41.28;54.43;;
37162;Laerm;68342;52.598;13.450;2024-02-26T04:23:08;46.09;41.50;58.53;;
37162;Laerm;68342;52.598;13.450;2024-02-26T04:25:34;45.64;41.79;60.40;;
37162;Laerm;68342;52.598;13.450;2024-02-26T04:27:59;45.74;41.89;54.71;;
37162;Laerm;68342;52.598;13.450;2024-02-26T04:30:24;45.53;41.48;61.54;;
37162;Laerm;68342;52.598;13.450;2024-02-26T04:32:49;44.68;41.04;55.93;;
37162;Laerm;68342;52.598;13.450;2024-02-26T04:35:15;45.88;41.98;53.39;;
37162;Laerm;68342;52.598;13.450;2024-02-26T04:37:40;46.13;41.13;63.78;;
37162;Laerm;68342;52.598;13.450;2024-02-26T04:40:05;45.94;41.66;56.69;;
37162;Laerm;68342;52.598;13.450;2024-02-26T04:42:31;46.12;42.00;72.80;;
37162;Laerm;68342;52.598;13.450;2024-02-26T04:44:56;45.56;41.93;55.09;;
37162;Laerm;68342;52.598;13.450;2024-02-26T04:47:21;45.61;41.67;57.81;;
37162;Laerm;68342;52.598;13.450;2024-02-26T04:49:47;45.99;41.67;61.61;;
37162;Laerm;68342;52.598;13.450;2024-02-26T04:52:13;44.53;41.03;59.21;;
37162;Laerm;68342;52.598;13.450;2024-02-26T04:54:38;44.13;40.45;57.03;;
37162;Laerm;68342;52.598;13.450;2024-02-26T04:57:03;44.77;40.99;63.06;;
37162;Laerm;68342;52.598;13.450;2024-02-26T04:59:29;45.01;40.72;67.84;;
37162;Laerm;68342;52.598;13.450;2024-02-26T05:01:55;44.53;40.78;55.54;;
37162;Laerm;68342;52.598;13.450;2024-02-26T05:04:20;46.58;41.04;67.11;;
37162;Laerm;68342;52.598;13.450;2024-02-26T05:06:45;45.44;41.19;66.92;;
37162;Laerm;68342;52.598;13.450;2024-02-26T05:09:11;45.48;41.79;62.12;;
37162;Laerm;68342;52.598;13.450;2024-02-26T05:11:36;45.83;41.64;59.51;;
37162;Laerm;68342;52.598;13.450;2024-02-26T05:14:01;45.09;41.48;54.41;;
37162;Laerm;68342;52.598;13.450;2024-02-26T05:16:27;45.60;41.86;57.49;;
37162;Laerm;68342;52.598;13.450;2024-02-26T05:18:52;47.23;41.26;59.92;;
37162;Laerm;68342;52.598;13.450;2024-02-26T05:21:17;45.87;41.47;57.34;;
37162;Laerm;68342;52.598;13.450;2024-02-26T05:23:43;51.89;43.66;65.34;;
37162;Laerm;68342;52.598;13.450;2024-02-26T05:26:09;53.29;41.87;67.50;;
37162;Laerm;68342;52.598;13.450;2024-02-26T05:28:34;49.60;42.29;64.40;;
37162;Laerm;68342;52.598;13.450;2024-02-26T05:30:59;54.84;43.45;71.35;;
37162;Laerm;68342;52.598;13.450;2024-02-26T05:33:24;55.18;42.68;71.41;;
37162;Laerm;68342;52.598;13.450;2024-02-26T05:35:50;49.63;42.52;67.06;;
37162;Laerm;68342;52.598;13.450;2024-02-26T05:38:15;49.53;43.85;59.52;;
37162;Laerm;68342;52.598;13.450;2024-02-26T05:40:40;47.67;43.11;55.74;;
37162;Laerm;68342;52.598;13.450;2024-02-26T05:43:05;50.69;43.90;66.06;;
37162;Laerm;68342;52.598;13.450;2024-02-26T05:45:31;47.66;42.52;61.31;;
37162;Laerm;68342;52.598;13.450;2024-02-26T05:47:56;47.41;43.54;59.23;;
37162;Laerm;68342;52.598;13.450;2024-02-26T05:50:21;47.07;42.38;55.89;;
37162;Laerm;68342;52.598;13.450;2024-02-26T05:52:46;46.84;42.97;62.71;;
37162;Laerm;68342;52.598;13.450;2024-02-26T05:55:12;48.62;43.16;65.82;;
37162;Laerm;68342;52.598;13.450;2024-02-26T05:57:38;47.41;43.73;59.16;;
37162;Laerm;68342;52.598;13.450;2024-02-26T06:00:04;46.48;43.26;59.31;;
37162;Laerm;68342;52.598;13.450;2024-02-26T06:02:30;46.12;42.24;54.51;;
37162;Laerm;68342;52.598;13.450;2024-02-26T06:04:55;46.83;42.56;73.56;;
37162;Laerm;68342;52.598;13.450;2024-02-26T06:07:20;46.26;42.79;61.96;;
37162;Laerm;68342;52.598;13.450;2024-02-26T06:09:45;46.69;42.42;67.67;;
37162;Laerm;68342;52.598;13.450;2024-02-26T06:12:11;48.71;41.81;72.50;;
37162;Laerm;68342;52.598;13.450;2024-02-26T06:14:36;47.80;42.11;64.81;;
37162;Laerm;68342;52.598;13.450;2024-02-26T06:17:01;50.03;42.13;68.68;;
37162;Laerm;68342;52.598;13.450;2024-02-26T06:19:26;57.44;43.24;77.67;;
37162;Laerm;68342;52.598;13.450;2024-02-26T06:21:52;54.23;43.24;72.85;;
37162;Laerm;68342;52.598;13.450;2024-02-26T06:24:17;57.26;42.77;75.22;;
37162;Laerm;68342;52.598;13.450;2024-02-26T06:26:42;54.16;42.83;74.11;;
37162;Laerm;68342;52.598;13.450;2024-02-26T06:29:07;50.55;43.20;65.31;;
37162;Laerm;68342;52.598;13.450;2024-02-26T06:31:33;53.25;43.15;67.90;;
37162;Laerm;68342;52.598;13.450;2024-02-26T06:33:58;54.21;43.33;71.28;;
37162;Laerm;68342;52.598;13.450;2024-02-26T06:36:23;47.41;42.20;66.16;;
37162;Laerm;68342;52.598;13.450;2024-02-26T06:38:48;48.32;42.56;68.53;;
37162;Laerm;68342;52.598;13.450;2024-02-26T06:41:14;46.59;42.92;55.41;;
37162;Laerm;68342;52.598;13.450;2024-02-26T06:43:39;46.57;41.98;65.35;;
37162;Laerm;68342;52.598;13.450;2024-02-26T06:46:05;46.26;41.91;62.24;;
37162;Laerm;68342;52.598;13.450;2024-02-26T06:48:30;46.32;42.16;55.11;;
37162;Laerm;68342;52.598;13.450;2024-02-26T06:50:56;46.32;41.50;66.23;;
37162;Laerm;68342;52.598;13.450;2024-02-26T06:53:21;45.67;40.68;63.18;;
37162;Laerm;68342;52.598;13.450;2024-02-26T06:55:46;61.42;40.99;77.49;;
37162;Laerm;68342;52.598;13.450;2024-02-26T06:58:11;61.09;41.45;75.71;;
37162;Laerm;68342;52.598;13.450;2024-02-26T07:00:37;44.18;40.13;52.28;;
37162;Laerm;68342;52.598;13.450;2024-02-26T07:03:02;45.67;39.08;74.53;;
37162;Laerm;68342;52.598;13.450;2024-02-26T07:05:27;46.25;39.38;63.16;;
37162;Laerm;68342;52.598;13.450;2024-02-26T07:07:53;48.79;39.18;69.56;;
37162;Laerm;68342;52.598;13.450;2024-02-26T07:10:18;49.47;39.25;67.86;;
37162;Laerm;68342;52.598;13.450;2024-02-26T07:12:43;44.06;38.87;57.20;;
37162;Laerm;68342;52.598;13.450;2024-02-26T07:15:09;48.59;39.20;70.76;;
37162;Laerm;68342;52.598;13.450;2024-02-26T07:17:34;45.30;40.16;60.77;;
37162;Laerm;68342;52.598;13.450;2024-02-26T07:19:59;45.97;40.01;59.14;;
37162;Laerm;68342;52.598;13.450;2024-02-26T07:22:25;46.50;40.72;59.57;;
37162;Laerm;68342;52.598;13.450;2024-02-26T07:24:50;48.30;38.87;62.24;;
37162;Laerm;68342;52.598;13.450;2024-02-26T07:27:16;47.01;39.38;58.89;;
37162;Laerm;68342;52.598;13.450;2024-02-26T07:29:42;48.70;39.21;61.36;;
37162;Laerm;68342;52.598;13.450;2024-02-26T07:32:08;44.68;39.32;61.36;;
37162;Laerm;68342;52.598;13.450;2024-02-26T07:34:33;48.16;38.74;65.45;;
37162;Laerm;68342;52.598;13.450;2024-02-26T07:36:58;48.48;38.80;66.52;;
37162;Laerm;68342;52.598;13.450;2024-02-26T07:39:23;45.49;38.38;58.98;;
37162;Laerm;68342;52.598;13.450;2024-02-26T07:41:49;42.44;38.46;53.60;;
37162;Laerm;68342;52.598;13.450;2024-02-26T07:44:16;43.73;38.25;57.54;;
37162;Laerm;68342;52.598;13.450;2024-02-26T07:46:42;42.86;38.00;54.92;;
37162;Laerm;68342;52.598;13.450;2024-02-26T07:49:07;44.56;38.34;56.91;;
37162;Laerm;68342;52.598;13.450;2024-02-26T07:51:33;44.15;38.25;57.59;;
37162;Laerm;68342;52.598;13.450;2024-02-26T07:53:59;44.12;38.24;55.86;;
37162;Laerm;68342;52.598;13.450;2024-02-26T07:56:25;44.41;38.69;60.05;;
37162;Laerm;68342;52.598;13.450;2024-02-26T07:58:50;46.69;38.05;65.63;;
37162;Laerm;68342;52.598;13.450;2024-02-26T08:01:15;44.43;36.88;55.08;;
37162;Laerm;68342;52.598;13.450;2024-02-26T08:03:41;42.75;38.02;56.78;;
37162;Laerm;68342;52.598;13.450;2024-02-26T08:06:07;44.16;37.91;57.40;;
37162;Laerm;68342;52.598;13.450;2024-02-26T08:08:33;41.65;37.73;55.12;;
37162;Laerm;68342;52.598;13.450;2024-02-26T08:10:58;43.25;37.52;59.21;;
37162;Laerm;68342;52.598;13.450;2024-02-26T08:13:23;44.85;38.03;58.37;;
37162;Laerm;68342;52.598;13.450;2024-02-26T08:15:49;42.13;37.16;52.71;;
37162;Laerm;68342;52.598;13.450;2024-02-26T08:18:14;43.73;37.61;61.19;;
37162;Laerm;68342;52.598;13.450;2024-02-26T08:20:39;41.89;37.30;56.73;;
37162;Laerm;68342;52.598;13.450;2024-02-26T08:23:04;42.02;37.27;54.74;;
37162;Laerm;68342;52.598;13.450;2024-02-26T08:25:30;42.28;37.09;57.67;;
37162;Laerm;68342;52.598;13.450;2024-02-26T08:27:55;42.39;36.96;55.80;;
37162;Laerm;68342;52.598;13.450;2024-02-26T08:30:20;42.92;37.42;59.04;;
37162;Laerm;68342;52.598;13.450;2024-02-26T08:32:47;41.77;36.56;54.59;;
37162;Laerm;68342;52.598;13.450;2024-02-26T08:35:12;44.12;36.93;60.85;;
37162;Laerm;68342;52.598;13.450;2024-02-26T08:37:38;45.15;37.66;61.19;;
37162;Laerm;68342;52.598;13.450;2024-02-26T08:40:03;45.31;36.94;59.67;;
37162;Laerm;68342;52.598;13.450;2024-02-26T08:42:29;43.71;37.32;60.39;;
37162;Laerm;68342;52.598;13.450;2024-02-26T08:44:54;43.11;37.69;55.34;;
37162;Laerm;68342;52.598;13.450;2024-02-26T08:47:19;43.39;37.38;58.77;;
37162;Laerm;68342;52.598;13.450;2024-02-26T08:49:45;43.40;37.04;60.40;;
37162;Laerm;68342;52.598;13.450;2024-02-26T08:52:10;45.70;37.24;61.62;;
37162;Laerm;68342;52.598;13.450;2024-02-26T08:54:36;43.98;37.50;60.80;;
37162;Laerm;68342;52.598;13.450;2024-02-26T08:57:01;44.25;37.71;59.06;;
37162;Laerm;68342;52.598;13.450;2024-02-26T08:59:27;41.95;37.41;59.22;;
37162;Laerm;68342;52.598;13.450;2024-02-26T09:01:53;42.07;37.51;54.59;;
37162;Laerm;68342;52.598;13.450;2024-02-26T09:04:18;42.78;37.21;53.84;;
37162;Laerm;68342;52.598;13.450;2024-02-26T09:06:43;41.39;36.70;56.98;;
37162;Laerm;68342;52.598;13.450;2024-02-26T09:09:08;42.97;37.23;59.06;;
37162;Laerm;68342;52.598;13.450;2024-02-26T09:11:33;44.97;37.06;66.94;;
37162;Laerm;68342;52.598;13.450;2024-02-26T09:13:59;45.97;36.99;62.70;;
37162;Laerm;68342;52.598;13.450;2024-02-26T09:16:24;41.38;36.31;57.51;;
37162;Laerm;68342;52.598;13.450;2024-02-26T09:18:49;43.49;37.45;61.17;;
37162;Laerm;68342;52.598;13.450;2024-02-26T09:21:15;42.40;36.10;55.47;;
37162;Laerm;68342;52.598;13.450;2024-02-26T09:23:41;41.93;37.06;56.47;;
37162;Laerm;68342;52.598;13.450;2024-02-26T09:26:06;42.49;36.45;57.12;;
37162;Laerm;68342;52.598;13.450;2024-02-26T09:28:31;41.53;35.82;54.91;;
37162;Laerm;68342;52.598;13.450;2024-02-26T09:31:02;45.26;35.88;68.58;;
37162;Laerm;68342;52.598;13.450;2024-02-26T09:33:27;43.90;35.57;62.48;;
37162;Laerm;68342;52.598;13.450;2024-02-26T09:35:52;42.37;36.42;57.68;;
37162;Laerm;68342;52.598;13.450;2024-02-26T09:38:17;41.65;36.12;56.19;;
37162;Laerm;68342;52.598;13.450;2024-02-26T09:40:43;42.76;36.61;58.45;;
37162;Laerm;68342;52.598;13.450;2024-02-26T09:43:08;40.80;36.52;56.05;;
37162;Laerm;68342;52.598;13.450;2024-02-26T09:45:35;41.09;36.68;53.80;;
37162;Laerm;68342;52.598;13.450;2024-02-26T09:48:00;44.18;36.70;60.28;;
37162;Laerm;68342;52.598;13.450;2024-02-26T09:50:28;44.97;36.02;58.74;;
37162;Laerm;68342;52.598;13.450;2024-02-26T09:52:54;43.96;36.62;59.15;;
37162;Laerm;68342;52.598;13.450;2024-02-26T09:55:19;41.99;36.24;56.90;;
37162;Laerm;68342;52.598;13.450;2024-02-26T09:57:45;42.30;35.72;58.27;;
37162;Laerm;68342;52.598;13.450;2024-02-26T10:00:17;44.02;36.76;61.59;;
37162;Laerm;68342;52.598;13.450;2024-02-26T10:02:43;42.38;36.18;56.75;;
37162;Laerm;68342;52.598;13.450;2024-02-26T10:05:10;40.40;36.23;55.30;;
37162;Laerm;68342;52.598;13.450;2024-02-26T10:07:37;40.33;35.71;54.66;;
37162;Laerm;68342;52.598;13.450;2024-02-26T10:10:03;43.16;36.64;54.37;;
37162;Laerm;68342;52.598;13.450;2024-02-26T10:12:28;42.12;36.47;60.90;;
37162;Laerm;68342;52.598;13.450;2024-02-26T10:14:54;41.76;36.70;56.09;;
37162;Laerm;68342;52.598;13.450;2024-02-26T10:17:19;45.86;37.46;56.50;;
37162;Laerm;68342;52.598;13.450;2024-02-26T10:19:45;41.73;36.46;52.12;;
37162;Laerm;68342;52.598;13.450;2024-02-26T10:22:10;42.27;37.01;61.11;;
37162;Laerm;68342;52.598;13.450;2024-02-26T10:24:35;41.51;37.13;53.19;;
37162;Laerm;68342;52.598;13.450;2024-02-26T10:27:01;43.31;38.51;54.12;;
37162;Laerm;68342;52.598;13.450;2024-02-26T10:29:26;42.15;37.62;56.27;;
37162;Laerm;68342;52.598;13.450;2024-02-26T10:31:52;42.90;36.99;62.94;;
37162;Laerm;68342;52.598;13.450;2024-02-26T10:34:18;41.64;35.98;54.99;;
37162;Laerm;68342;52.598;13.450;2024-02-26T10:36:43;39.99;36.17;57.41;;
37162;Laerm;68342;52.598;13.450;2024-02-26T10:39:11;40.57;36.14;55.22;;
37162;Laerm;68342;52.598;13.450;2024-02-26T10:41:37;41.21;36.01;54.76;;
37162;Laerm;68342;52.598;13.450;2024-02-26T10:44:03;42.21;35.54;60.00;;
37162;Laerm;68342;52.598;13.450;2024-02-26T10:46:28;40.40;35.32;54.01;;
37162;Laerm;68342;52.598;13.450;2024-02-26T10:48:54;39.38;34.86;54.33;;
37162;Laerm;68342;52.598;13.450;2024-02-26T10:51:22;39.61;35.02;56.22;;
37162;Laerm;68342;52.598;13.450;2024-02-26T10:53:50;40.58;34.96;55.80;;
37162;Laerm;68342;52.598;13.450;2024-02-26T10:56:18;42.52;36.33;57.42;;
37162;Laerm;68342;52.598;13.450;2024-02-26T10:58:44;43.00;39.36;53.54;;
37162;Laerm;68342;52.598;13.450;2024-02-26T11:01:10;50.10;38.88;69.72;;
37162;Laerm;68342;52.598;13.450;2024-02-26T11:03:36;52.35;38.33;68.26;;
37162;Laerm;68342;52.598;13.450;2024-02-26T11:06:02;43.16;37.31;56.33;;
37162;Laerm;68342;52.598;13.450;2024-02-26T11:08:28;48.21;37.40;62.39;;
37162;Laerm;68342;52.598;13.450;2024-02-26T11:10:54;41.51;35.72;54.27;;
37162;Laerm;68342;52.598;13.450;2024-02-26T11:13:21;41.26;36.58;56.89;;
37162;Laerm;68342;52.598;13.450;2024-02-26T11:15:46;42.33;37.39;54.41;;
37162;Laerm;68342;52.598;13.450;2024-02-26T11:18:13;39.54;34.71;54.76;;
37162;Laerm;68342;52.598;13.450;2024-02-26T11:20:40;41.25;35.87;58.78;;
37162;Laerm;68342;52.598;13.450;2024-02-26T11:23:05;41.97;35.54;58.97;;
37162;Laerm;68342;52.598;13.450;2024-02-26T11:25:31;41.24;34.85;56.59;;
37162;Laerm;68342;52.598;13.450;2024-02-26T11:27:59;39.76;35.66;55.86;;
37162;Laerm;68342;52.598;13.450;2024-02-26T11:30:26;46.54;35.91;63.02;;
37162;Laerm;68342;52.598;13.450;2024-02-26T11:32:54;45.42;38.36;56.84;;
37162;Laerm;68342;52.598;13.450;2024-02-26T11:35:20;44.16;38.96;58.16;;
37162;Laerm;68342;52.598;13.450;2024-02-26T11:37:53;42.54;36.93;54.03;;
37162;Laerm;68342;52.598;13.450;2024-02-26T11:40:18;44.21;37.62;64.84;;
37162;Laerm;68342;52.598;13.450;2024-02-26T11:42:44;41.30;36.12;57.13;;
37162;Laerm;68342;52.598;13.450;2024-02-26T11:48:12;43.64;35.51;70.66;;
37162;Laerm;68342;52.598;13.450;2024-02-26T11:53:22;39.48;34.79;56.61;;
37162;Laerm;68342;52.598;13.450;2024-02-26T11:55:48;40.51;34.84;55.67;;
37162;Laerm;68342;52.598;13.450;2024-02-26T11:58:14;41.79;35.45;57.68;;
37162;Laerm;68342;52.598;13.450;2024-02-26T12:00:40;39.62;34.55;56.53;;
37162;Laerm;68342;52.598;13.450;2024-02-26T12:03:05;47.66;35.04;70.33;;
37162;Laerm;68342;52.598;13.450;2024-02-26T12:05:33;44.83;34.38;64.18;;
37162;Laerm;68342;52.598;13.450;2024-02-26T12:08:00;48.45;35.41;70.81;;
37162;Laerm;68342;52.598;13.450;2024-02-26T12:10:32;42.57;35.85;59.00;;
37162;Laerm;68342;52.598;13.450;2024-02-26T12:15:32;41.15;36.12;59.86;;
37162;Laerm;68342;52.598;13.450;2024-02-26T12:18:00;44.73;36.31;66.19;;
37162;Laerm;68342;52.598;13.450;2024-02-26T12:20:26;40.34;36.19;55.04;;
37162;Laerm;68342;52.598;13.450;2024-02-26T12:22:51;41.47;37.44;52.39;;
37162;Laerm;68342;52.598;13.450;2024-02-26T12:25:19;42.57;37.44;54.56;;
37162;Laerm;68342;52.598;13.450;2024-02-26T12:27:44;43.88;37.47;61.80;;
37162;Laerm;68342;52.598;13.450;2024-02-26T12:30:10;42.39;36.66;58.54;;
37162;Laerm;68342;52.598;13.450;2024-02-26T12:32:35;41.57;35.99;55.76;;
37162;Laerm;68342;52.598;13.450;2024-02-26T12:35:01;42.80;35.71;62.13;;
37162;Laerm;68342;52.598;13.450;2024-02-26T12:37:27;42.82;38.48;58.02;;
37162;Laerm;68342;52.598;13.450;2024-02-26T12:39:53;41.90;36.54;58.90;;
37162;Laerm;68342;52.598;13.450;2024-02-26T12:42:18;40.90;36.35;54.72;;
37162;Laerm;68342;52.598;13.450;2024-02-26T12:44:47;43.00;36.45;57.33;;
37162;Laerm;68342;52.598;13.450;2024-02-26T12:47:12;44.18;37.48;63.33;;
37162;Laerm;68342;52.598;13.450;2024-02-26T12:49:42;41.64;36.23;54.58;;
37162;Laerm;68342;52.598;13.450;2024-02-26T12:52:08;41.28;37.06;61.64;;
37162;Laerm;68342;52.598;13.450;2024-02-26T12:54:33;41.94;36.91;55.27;;
37162;Laerm;68342;52.598;13.450;2024-02-26T12:57:00;41.83;37.53;54.21;;
37162;Laerm;68342;52.598;13.450;2024-02-26T12:59:26;41.99;35.85;54.17;;
37162;Laerm;68342;52.598;13.450;2024-02-26T13:01:52;43.08;36.81;53.99;;
37162;Laerm;68342;52.598;13.450;2024-02-26T13:04:17;45.97;37.15;62.80;;
37162;Laerm;68342;52.598;13.450;2024-02-26T13:06:43;45.88;36.48;63.36;;
37162;Laerm;68342;52.598;13.450;2024-02-26T13:09:12;49.73;37.96;64.31;;
37162;Laerm;68342;52.598;13.450;2024-02-26T13:11:39;47.55;36.90;65.96;;
37162;Laerm;68342;52.598;13.450;2024-02-26T13:14:04;43.18;36.78;56.87;;
37162;Laerm;68342;52.598;13.450;2024-02-26T13:16:29;42.94;36.82;58.17;;
37162;Laerm;68342;52.598;13.450;2024-02-26T13:18:55;45.11;38.62;57.17;;
37162;Laerm;68342;52.598;13.450;2024-02-26T13:21:20;44.35;38.20;60.81;;
37162;Laerm;68342;52.598;13.450;2024-02-26T13:23:51;42.46;37.59;56.57;;
37162;Laerm;68342;52.598;13.450;2024-02-26T13:26:17;44.47;37.89;65.04;;
37162;Laerm;68342;52.598;13.450;2024-02-26T13:28:46;42.64;37.53;55.11;;
37162;Laerm;68342;52.598;13.450;2024-02-26T13:31:11;42.40;37.92;57.22;;